Oceanside, Washington
Current Conditions -  °F | °C
As of 4:12 AM on Sunday 23 Nov 2014 (Local Time) from KAST Reporting Station
Broken Clouds Broken Clouds  
Wind Chill: 54°   Ceiling: 5500
Heat Index: 54°   Visibility: 10mi
Dew Point: 48°   Wind: 16mph
Humidity: 80%   Direction: 210°SSW
Pressure: 30.2"   Gusts: 22mph
Location:  46.3832°N, 124.042°W
Report Text: KAST 231212Z AUTO 21014G19KT 10SM SCT027 BKN055 12/09 A3020 RMK AO2 T01220089
Loading
Personal Weather Stations






























Interactive Weather Map New forecast layout! Learn more

10-Day Weather Forecast

Advertisements
Track Severe Weather on mobile